Time;durP1;ratioP1;P1;durP2;ratioP2;P2;SDS_P1;SDS_P2;PMS_P1;PMS_P2;Temp;Humidity;BMP_temperature;BMP_pressure;BME280_temperature;BME280_humidity;BME280_pressure;Samples;Min_cycle;Max_cycle;Signal;HPM_P1;HPM_P2
2023/04/06 00:00:24;;;;;;;0.00;0.00;;;;;;;;;;1737699;28;20211;-74
2023/04/06 00:01:15;;;;;;;0.10;0.10;;;;;;;;;;1737160;28;20312;-73
2023/04/06 00:02:08;;;;;;;0.10;0.10;;;;;;;;;;1736639;28;20231;-73
2023/04/06 00:02:59;;;;;;;0.15;0.15;;;;;;;;;;1735194;28;20277;-73
2023/04/06 00:03:51;;;;;;;0.10;0.10;;;;;;;;;;1738793;28;20206;-73
2023/04/06 00:04:42;;;;;;;0.30;0.30;;;;;;;;;;1736319;28;20220;-73
2023/04/06 00:05:34;;;;;;;0.00;0.00;;;;;;;;;;1738025;28;20548;-73
2023/04/06 00:06:26;;;;;;;0.10;0.10;;;;;;;;;;1736857;28;20288;-73
2023/04/06 00:07:17;;;;;;;0.00;0.00;;;;;;;;;;1735081;28;20223;-73
2023/04/06 00:08:09;;;;;;;0.10;0.10;;;;;;;;;;1736036;28;20211;-73
2023/04/06 00:09:01;;;;;;;0.25;0.25;;;;;;;;;;1737440;28;20531;-73
2023/04/06 00:09:53;;;;;;;0.10;0.10;;;;;;;;;;1735571;28;20203;-73
2023/04/06 00:10:44;;;;;;;0.30;0.30;;;;;;;;;;1739109;28;20212;-73
2023/04/06 00:11:36;;;;;;;0.10;0.10;;;;;;;;;;1737278;28;20514;-73
2023/04/06 00:12:27;;;;;;;0.20;0.20;;;;;;;;;;1733401;28;20249;-74
2023/04/06 00:13:19;;;;;;;0.00;0.00;;;;;;;;;;1737284;28;20273;-74
2023/04/06 00:14:10;;;;;;;0.10;0.10;;;;;;;;;;1735787;28;20613;-74
2023/04/06 00:15:05;;;;;;;0.10;0.10;;;;;;;;;;1735648;28;20256;-73
2023/04/06 00:15:56;;;;;;;0.20;0.20;;;;;;;;;;1737943;28;20212;-73
2023/04/06 00:16:47;;;;;;;0.00;0.00;;;;;;;;;;1738333;28;20229;-73
2023/04/06 00:17:40;;;;;;;0.20;0.20;;;;;;;;;;1733147;28;20218;-73
2023/04/06 00:18:31;;;;;;;0.17;0.17;;;;;;;;;;1738705;28;20268;-73
2023/04/06 00:19:23;;;;;;;0.20;0.20;;;;;;;;;;1734343;28;20857;-73
2023/04/06 00:20:15;;;;;;;0.00;0.00;;;;;;;;;;1734672;28;20208;-73
2023/04/06 00:21:07;;;;;;;0.25;0.25;;;;;;;;;;1736768;28;20303;-73
2023/04/06 00:21:58;;;;;;;0.10;0.10;;;;;;;;;;1737361;28;20215;-73
2023/04/06 00:22:50;;;;;;;0.10;0.10;;;;;;;;;;1733656;28;20219;-73
2023/04/06 00:23:41;;;;;;;0.13;0.13;;;;;;;;;;1739665;28;20665;-73
2023/04/06 00:24:32;;;;;;;0.20;0.20;;;;;;;;;;1734101;28;20212;-73
2023/04/06 00:25:24;;;;;;;0.30;0.30;;;;;;;;;;1737483;28;20215;-73
2023/04/06 00:26:15;;;;;;;0.10;0.10;;;;;;;;;;1736639;28;20216;-73
2023/04/06 00:27:07;;;;;;;0.17;0.17;;;;;;;;;;1736314;28;20291;-73
2023/04/06 00:27:58;;;;;;;0.05;0.05;;;;;;;;;;1734417;28;20273;-73
2023/04/06 00:28:52;;;;;;;0.25;0.25;;;;;;;;;;1738489;28;20200;-73
2023/04/06 00:29:44;;;;;;;0.10;0.10;;;;;;;;;;1735708;28;20637;-73
2023/04/06 00:30:36;;;;;;;0.00;0.00;;;;;;;;;;1735358;28;20218;-72
2023/04/06 00:31:27;;;;;;;0.28;0.28;;;;;;;;;;1736637;28;20219;-73
2023/04/06 00:32:18;;;;;;;0.10;0.10;;;;;;;;;;1734660;28;20208;-72
2023/04/06 00:33:11;;;;;;;0.13;0.13;;;;;;;;;;1736046;28;20644;-72
2023/04/06 00:34:02;;;;;;;0.00;0.00;;;;;;;;;;1737027;28;20260;-72
2023/04/06 00:34:54;;;;;;;0.20;0.20;;;;;;;;;;1735334;28;20211;-72
2023/04/06 00:35:45;;;;;;;0.20;0.20;;;;;;;;;;1738742;28;20207;-72
2023/04/06 00:36:37;;;;;;;0.10;0.10;;;;;;;;;;1736702;28;20295;-72
2023/04/06 00:37:28;;;;;;;0.05;0.05;;;;;;;;;;1733295;28;20644;-72
2023/04/06 00:38:20;;;;;;;0.00;0.00;;;;;;;;;;1736348;28;20600;-72
2023/04/06 00:39:11;;;;;;;0.28;0.28;;;;;;;;;;1735649;28;20563;-72
2023/04/06 00:40:04;;;;;;;0.10;0.10;;;;;;;;;;1733583;28;20204;-72
2023/04/06 00:40:55;;;;;;;0.10;0.10;;;;;;;;;;1737778;28;20591;-73
2023/04/06 00:41:49;;;;;;;0.10;0.10;;;;;;;;;;1737974;28;20215;-74
2023/04/06 00:42:40;;;;;;;0.00;0.00;;;;;;;;;;1732715;28;20226;-73
2023/04/06 00:43:32;;;;;;;0.00;0.00;;;;;;;;;;1737738;28;20246;-73
2023/04/06 00:44:24;;;;;;;0.10;0.10;;;;;;;;;;1734416;28;20385;-73
2023/04/06 00:45:15;;;;;;;0.22;0.22;;;;;;;;;;1737152;28;20235;-73
2023/04/06 00:46:07;;;;;;;0.10;0.10;;;;;;;;;;1737006;28;20637;-73
2023/04/06 00:46:58;;;;;;;0.03;0.03;;;;;;;;;;1737450;28;20216;-73
2023/04/06 00:47:50;;;;;;;0.30;0.30;;;;;;;;;;1732827;28;20298;-73
2023/04/06 00:48:43;;;;;;;0.17;0.17;;;;;;;;;;1739107;28;20269;-73
2023/04/06 00:49:35;;;;;;;0.10;0.10;;;;;;;;;;1733822;28;20208;-72
2023/04/06 00:50:26;;;;;;;0.10;0.10;;;;;;;;;;1737485;28;20244;-72
2023/04/06 00:51:18;;;;;;;0.20;0.20;;;;;;;;;;1736489;28;20231;-72
2023/04/06 00:52:10;;;;;;;0.10;0.10;;;;;;;;;;1735721;28;20242;-72
2023/04/06 00:53:02;;;;;;;0.25;0.25;;;;;;;;;;1733660;28;20212;-72
2023/04/06 00:53:54;;;;;;;0.20;0.20;;;;;;;;;;1738156;28;20652;-72
2023/04/06 00:54:46;;;;;;;0.10;0.10;;;;;;;;;;1735793;28;20294;-72
2023/04/06 00:55:37;;;;;;;0.30;0.30;;;;;;;;;;1736013;28;20284;-72
2023/04/06 00:56:29;;;;;;;0.10;0.10;;;;;;;;;;1736988;28;20215;-73
2023/04/06 00:57:20;;;;;;;0.20;0.20;;;;;;;;;;1734537;28;20269;-73
2023/04/06 00:58:12;;;;;;;0.20;0.20;;;;;;;;;;1734864;28;20219;-73
2023/04/06 00:59:03;;;;;;;0.50;0.50;;;;;;;;;;1736732;28;20276;-73
2023/04/06 00:59:55;;;;;;;0.10;0.10;;;;;;;;;;1735445;28;20533;-73
2023/04/06 01:00:46;;;;;;;0.30;0.30;;;;;;;;;;1738588;28;20469;-73
2023/04/06 01:01:38;;;;;;;0.22;0.22;;;;;;;;;;1736993;28;20207;-73
2023/04/06 01:02:29;;;;;;;0.13;0.13;;;;;;;;;;1733043;28;20207;-73
2023/04/06 01:03:21;;;;;;;0.10;0.10;;;;;;;;;;1736398;28;20217;-73
2023/04/06 01:04:14;;;;;;;0.03;0.03;;;;;;;;;;1735402;28;20265;-73
2023/04/06 01:05:06;;;;;;;0.20;0.20;;;;;;;;;;1736456;28;20203;-73
2023/04/06 01:05:58;;;;;;;0.40;0.40;;;;;;;;;;1737370;28;20308;-73
2023/04/06 01:06:50;;;;;;;0.10;0.10;;;;;;;;;;1737358;28;20242;-73
2023/04/06 01:07:41;;;;;;;0.15;0.15;;;;;;;;;;1732503;28;20212;-73
2023/04/06 01:08:33;;;;;;;0.20;0.20;;;;;;;;;;1737479;28;20704;-73
2023/04/06 01:09:24;;;;;;;0.13;0.13;;;;;;;;;;1734217;28;20254;-73
2023/04/06 01:10:24;;;;;;;0.10;0.10;;;;;;;;;;1737080;28;20212;-73
2023/04/06 01:11:15;;;;;;;0.00;0.00;;;;;;;;;;1736953;28;20634;-73
2023/04/06 01:12:07;;;;;;;0.20;0.20;;;;;;;;;;1735914;28;20637;-73
2023/04/06 01:12:58;;;;;;;0.10;0.10;;;;;;;;;;1732562;28;20211;-73
2023/04/06 01:13:49;;;;;;;0.20;0.20;;;;;;;;;;1732277;28;20212;-73
2023/04/06 01:14:41;;;;;;;0.10;0.10;;;;;;;;;;1732038;28;20212;-73
2023/04/06 01:15:33;;;;;;;0.10;0.10;;;;;;;;;;1732392;28;20212;-73
2023/04/06 01:16:24;;;;;;;0.10;0.10;;;;;;;;;;1733525;28;20711;-73
2023/04/06 01:17:16;;;;;;;0.30;0.30;;;;;;;;;;1732139;28;20216;-73
2023/04/06 01:18:10;;;;;;;0.08;0.08;;;;;;;;;;1732861;28;20341;-73
2023/04/06 01:19:01;;;;;;;0.10;0.10;;;;;;;;;;1732074;28;20660;-73
2023/04/06 01:19:54;;;;;;;0.00;0.00;;;;;;;;;;1732691;28;20630;-73
2023/04/06 01:20:45;;;;;;;0.10;0.10;;;;;;;;;;1733428;28;20215;-73
2023/04/06 01:21:37;;;;;;;0.28;0.28;;;;;;;;;;1731447;28;20230;-73
2023/04/06 01:22:29;;;;;;;0.00;0.00;;;;;;;;;;1732008;28;20655;-73
2023/04/06 01:23:20;;;;;;;0.10;0.10;;;;;;;;;;1733821;28;20250;-73
2023/04/06 01:24:12;;;;;;;0.10;0.10;;;;;;;;;;1732246;28;20236;-73
2023/04/06 01:25:04;;;;;;;0.10;0.10;;;;;;;;;;1733916;28;20269;-73
2023/04/06 01:25:56;;;;;;;0.03;0.03;;;;;;;;;;1732231;28;20702;-73
2023/04/06 01:26:47;;;;;;;0.30;0.30;;;;;;;;;;1731567;28;20292;-73
2023/04/06 01:27:39;;;;;;;0.10;0.10;;;;;;;;;;1739867;28;20660;-73
2023/04/06 01:28:30;;;;;;;0.10;0.10;;;;;;;;;;1733497;28;20222;-73
2023/04/06 01:29:22;;;;;;;0.15;0.15;;;;;;;;;;1732590;28;20752;-73
2023/04/06 01:30:13;;;;;;;0.17;0.17;;;;;;;;;;1732766;28;20358;-73
2023/04/06 01:31:05;;;;;;;0.10;0.10;;;;;;;;;;1731903;28;20576;-73
2023/04/06 01:31:56;;;;;;;0.10;0.10;;;;;;;;;;1733059;28;20207;-73
2023/04/06 01:32:48;;;;;;;0.20;0.20;;;;;;;;;;1737670;28;20260;-72
2023/04/06 01:33:39;;;;;;;0.10;0.10;;;;;;;;;;1732121;28;20220;-73
2023/04/06 01:34:31;;;;;;;0.20;0.20;;;;;;;;;;1736563;28;20203;-73
2023/04/06 01:35:22;;;;;;;0.20;0.20;;;;;;;;;;1732165;28;20188;-73
2023/04/06 01:36:14;;;;;;;0.13;0.13;;;;;;;;;;1733379;28;20215;-72
2023/04/06 01:37:05;;;;;;;0.20;0.20;;;;;;;;;;1734281;28;20581;-72
2023/04/06 01:37:59;;;;;;;0.10;0.10;;;;;;;;;;1736528;28;20229;-72
2023/04/06 01:38:50;;;;;;;0.20;0.20;;;;;;;;;;1732738;28;20299;-72
2023/04/06 01:39:42;;;;;;;0.00;0.00;;;;;;;;;;1735266;28;20214;-72
2023/04/06 01:40:34;;;;;;;0.00;0.00;;;;;;;;;;1733903;28;20212;-72
2023/04/06 01:41:26;;;;;;;0.17;0.17;;;;;;;;;;1731522;28;20254;-73
2023/04/06 01:42:17;;;;;;;0.32;0.32;;;;;;;;;;1732302;28;20613;-73
2023/04/06 01:43:09;;;;;;;0.10;0.10;;;;;;;;;;1733013;28;20215;-73
2023/04/06 01:44:00;;;;;;;0.20;0.20;;;;;;;;;;1732004;28;20248;-73
2023/04/06 01:44:52;;;;;;;0.25;0.25;;;;;;;;;;1732066;28;20552;-73
2023/04/06 01:45:43;;;;;;;0.10;0.10;;;;;;;;;;1732741;28;20269;-73
2023/04/06 01:46:35;;;;;;;0.20;0.20;;;;;;;;;;1733919;28;20212;-72
2023/04/06 01:47:26;;;;;;;0.10;0.10;;;;;;;;;;1732399;28;20212;-72
2023/04/06 01:48:17;;;;;;;0.30;0.30;;;;;;;;;;1731914;28;20215;-73
2023/04/06 01:49:09;;;;;;;0.10;0.10;;;;;;;;;;1734978;28;20290;-72
2023/04/06 01:50:00;;;;;;;0.20;0.20;;;;;;;;;;1733379;28;20215;-71
2023/04/06 01:50:52;;;;;;;0.10;0.10;;;;;;;;;;1732707;28;20270;-71
2023/04/06 01:51:43;;;;;;;0.10;0.10;;;;;;;;;;1730196;28;20212;-73
2023/04/06 01:52:34;;;;;;;0.17;0.17;;;;;;;;;;1738350;28;20219;-73
2023/04/06 01:53:27;;;;;;;0.10;0.10;;;;;;;;;;1732764;28;20214;-73
2023/04/06 01:54:18;;;;;;;0.10;0.10;;;;;;;;;;1736136;28;20816;-73
2023/04/06 01:55:10;;;;;;;0.10;0.10;;;;;;;;;;1733939;28;20464;-73
2023/04/06 01:56:01;;;;;;;0.10;0.10;;;;;;;;;;1733524;28;20270;-72
2023/04/06 01:56:52;;;;;;;0.10;0.10;;;;;;;;;;1731968;28;20282;-72
2023/04/06 01:57:44;;;;;;;0.00;0.00;;;;;;;;;;1732050;28;20519;-72
2023/04/06 01:58:35;;;;;;;0.10;0.10;;;;;;;;;;1732284;28;20560;-72
2023/04/06 01:59:26;;;;;;;0.10;0.10;;;;;;;;;;1731837;28;20223;-72
2023/04/06 02:00:18;;;;;;;0.10;0.10;;;;;;;;;;1733584;28;20327;-72
2023/04/06 02:01:09;;;;;;;0.10;0.10;;;;;;;;;;1731646;28;20265;-72
2023/04/06 02:02:00;;;;;;;0.40;0.40;;;;;;;;;;1731636;28;20211;-72
2023/04/06 02:02:52;;;;;;;0.10;0.10;;;;;;;;;;1731609;28;20204;-72
2023/04/06 02:03:43;;;;;;;0.20;0.20;;;;;;;;;;1732265;28;20208;-72
2023/04/06 02:04:35;;;;;;;0.20;0.20;;;;;;;;;;1731376;28;20274;-72
2023/04/06 02:05:27;;;;;;;0.20;0.20;;;;;;;;;;1732097;28;20223;-72
2023/04/06 02:06:19;;;;;;;0.03;0.03;;;;;;;;;;1733252;28;20203;-73
2023/04/06 02:07:10;;;;;;;0.35;0.35;;;;;;;;;;1731914;28;20673;-73
2023/04/06 02:08:02;;;;;;;0.13;0.13;;;;;;;;;;1731484;28;20208;-73
2023/04/06 02:08:54;;;;;;;0.20;0.20;;;;;;;;;;1731663;28;20669;-73
2023/04/06 02:09:46;;;;;;;0.20;0.20;;;;;;;;;;1732113;28;20212;-73
2023/04/06 02:10:37;;;;;;;0.20;0.20;;;;;;;;;;1732031;28;20208;-73
2023/04/06 02:11:30;;;;;;;0.25;0.25;;;;;;;;;;1733193;28;20204;-73
2023/04/06 02:12:21;;;;;;;0.20;0.20;;;;;;;;;;1731690;28;20223;-73
2023/04/06 02:13:13;;;;;;;0.38;0.38;;;;;;;;;;1733535;28;20319;-73
2023/04/06 02:14:04;;;;;;;0.30;0.30;;;;;;;;;;1740781;28;20671;-73
2023/04/06 02:14:56;;;;;;;0.20;0.20;;;;;;;;;;1741229;28;20246;-72
2023/04/06 02:15:47;;;;;;;0.10;0.10;;;;;;;;;;1739956;28;20591;-72
2023/04/06 02:16:39;;;;;;;0.15;0.15;;;;;;;;;;1739943;28;20214;-72
2023/04/06 02:17:30;;;;;;;0.30;0.30;;;;;;;;;;1745410;28;20214;-72
2023/04/06 02:18:22;;;;;;;0.13;0.13;;;;;;;;;;1740275;28;20210;-72
2023/04/06 02:19:13;;;;;;;0.20;0.20;;;;;;;;;;1741966;28;20210;-72
2023/04/06 02:20:05;;;;;;;0.10;0.10;;;;;;;;;;1741402;28;20715;-72
2023/04/06 02:20:56;;;;;;;0.10;0.10;;;;;;;;;;1739514;28;20215;-72
2023/04/06 02:21:48;;;;;;;0.10;0.10;;;;;;;;;;1738663;28;20203;-72
2023/04/06 02:22:40;;;;;;;0.20;0.20;;;;;;;;;;1739023;28;20227;-72
2023/04/06 02:23:32;;;;;;;0.25;0.25;;;;;;;;;;1738825;28;20203;-72
2023/04/06 02:24:24;;;;;;;0.17;0.17;;;;;;;;;;1742023;28;20214;-72
2023/04/06 02:25:16;;;;;;;0.30;0.30;;;;;;;;;;1740375;28;20472;-72
2023/04/06 02:26:07;;;;;;;0.20;0.20;;;;;;;;;;1740097;28;20549;-72
2023/04/06 02:27:00;;;;;;;0.20;0.20;;;;;;;;;;1739846;28;20586;-72
2023/04/06 02:27:51;;;;;;;0.20;0.20;;;;;;;;;;1743996;28;20211;-72
2023/04/06 02:28:43;;;;;;;0.32;0.32;;;;;;;;;;1739275;28;20207;-72
2023/04/06 02:29:34;;;;;;;0.00;0.00;;;;;;;;;;1742713;28;20210;-72
2023/04/06 02:30:25;;;;;;;0.15;0.15;;;;;;;;;;1740628;28;20284;-72
2023/04/06 02:31:17;;;;;;;0.30;0.30;;;;;;;;;;1739757;28;20695;-73
2023/04/06 02:32:08;;;;;;;0.25;0.25;;;;;;;;;;1740762;28;20545;-73
2023/04/06 02:32:59;;;;;;;0.10;0.10;;;;;;;;;;1743510;28;20206;-73
2023/04/06 02:33:51;;;;;;;0.20;0.20;;;;;;;;;;1742515;28;20280;-73
2023/04/06 02:34:42;;;;;;;0.20;0.20;;;;;;;;;;1742763;28;20215;-73
2023/04/06 02:35:34;;;;;;;0.20;0.20;;;;;;;;;;1740479;28;20239;-73
2023/04/06 02:36:25;;;;;;;0.20;0.20;;;;;;;;;;1739788;28;20272;-72
2023/04/06 02:37:17;;;;;;;0.32;0.32;;;;;;;;;;1742236;28;20545;-72
2023/04/06 02:38:08;;;;;;;0.15;0.15;;;;;;;;;;1741547;28;20264;-72
2023/04/06 02:39:00;;;;;;;0.20;0.20;;;;;;;;;;1739973;28;20472;-72
2023/04/06 02:39:53;;;;;;;0.10;0.10;;;;;;;;;;1738915;28;20277;-72
2023/04/06 02:40:45;;;;;;;0.30;0.30;;;;;;;;;;1740221;28;20218;-72
2023/04/06 02:41:36;;;;;;;0.30;0.30;;;;;;;;;;1739580;28;20729;-72
2023/04/06 02:42:28;;;;;;;0.10;0.10;;;;;;;;;;1743504;28;20335;-72
2023/04/06 02:43:19;;;;;;;0.10;0.10;;;;;;;;;;1740532;28;20361;-72
2023/04/06 02:44:11;;;;;;;0.15;0.15;;;;;;;;;;1741280;28;20949;-72
2023/04/06 02:45:03;;;;;;;0.10;0.10;;;;;;;;;;1740971;28;20211;-72
2023/04/06 02:45:55;;;;;;;0.28;0.28;;;;;;;;;;1739025;28;20592;-73
2023/04/06 02:46:46;;;;;;;0.20;0.20;;;;;;;;;;1739181;28;20265;-73
2023/04/06 02:47:38;;;;;;;0.00;0.00;;;;;;;;;;1745208;28;20233;-73
2023/04/06 02:48:29;;;;;;;0.10;0.10;;;;;;;;;;1738998;28;20672;-73
2023/04/06 02:49:21;;;;;;;0.10;0.10;;;;;;;;;;1742688;28;20207;-73
2023/04/06 02:50:12;;;;;;;0.40;0.40;;;;;;;;;;1743311;28;20594;-73
2023/04/06 02:51:04;;;;;;;0.10;0.10;;;;;;;;;;1739924;28;20199;-73
2023/04/06 02:51:55;;;;;;;0.28;0.28;;;;;;;;;;1737792;28;20220;-73
2023/04/06 02:52:47;;;;;;;0.10;0.10;;;;;;;;;;1744854;28;20586;-73
2023/04/06 02:53:38;;;;;;;0.00;0.00;;;;;;;;;;1739161;28;20215;-73
2023/04/06 02:54:30;;;;;;;0.10;0.10;;;;;;;;;;1742416;28;20203;-73
2023/04/06 02:55:23;;;;;;;0.10;0.10;;;;;;;;;;1740426;28;20242;-73
2023/04/06 02:56:15;;;;;;;0.10;0.10;;;;;;;;;;1739663;28;20266;-72
2023/04/06 02:57:06;;;;;;;0.10;0.10;;;;;;;;;;1738647;28;20753;-72
2023/04/06 02:57:58;;;;;;;0.13;0.13;;;;;;;;;;1743049;28;20202;-72
2023/04/06 02:58:49;;;;;;;0.20;0.20;;;;;;;;;;1738655;28;20618;-72
2023/04/06 02:59:40;;;;;;;0.20;0.20;;;;;;;;;;1742333;28;20209;-72
2023/04/06 03:00:32;;;;;;;0.28;0.28;;;;;;;;;;1739969;28;20298;-72
2023/04/06 03:01:23;;;;;;;0.10;0.10;;;;;;;;;;1739505;28;20211;-72
2023/04/06 03:02:14;;;;;;;0.10;0.10;;;;;;;;;;1741360;28;20260;-72
2023/04/06 03:03:07;;;;;;;0.22;0.22;;;;;;;;;;1742005;28;20273;-72
2023/04/06 03:03:58;;;;;;;0.20;0.20;;;;;;;;;;1739418;28;20218;-72
2023/04/06 03:04:50;;;;;;;0.05;0.05;;;;;;;;;;1741640;28;20208;-72
2023/04/06 03:05:41;;;;;;;0.10;0.10;;;;;;;;;;1740101;28;20302;-72
2023/04/06 03:06:33;;;;;;;0.10;0.10;;;;;;;;;;1739595;28;20203;-73
2023/04/06 03:07:24;;;;;;;0.10;0.10;;;;;;;;;;1742723;28;20710;-73
2023/04/06 03:08:16;;;;;;;0.13;0.13;;;;;;;;;;1740937;28;20208;-73
2023/04/06 03:09:07;;;;;;;0.10;0.10;;;;;;;;;;1740369;28;20226;-73
2023/04/06 03:09:58;;;;;;;0.10;0.10;;;;;;;;;;1740966;28;20211;-73
2023/04/06 03:10:51;;;;;;;0.20;0.20;;;;;;;;;;1739283;28;20199;-73
2023/04/06 03:11:42;;;;;;;0.22;0.22;;;;;;;;;;1737255;28;20859;-73
2023/04/06 03:12:34;;;;;;;0.13;0.13;;;;;;;;;;1744255;28;20915;-73
2023/04/06 03:13:25;;;;;;;0.22;0.22;;;;;;;;;;1738882;28;20300;-74
2023/04/06 03:14:21;;;;;;;0.10;0.10;;;;;;;;;;1738384;28;20342;-74
2023/04/06 03:15:12;;;;;;;0.00;0.00;;;;;;;;;;1738804;28;20208;-74
2023/04/06 03:16:04;;;;;;;0.05;0.05;;;;;;;;;;1739830;28;20207;-73
2023/04/06 03:16:55;;;;;;;0.10;0.10;;;;;;;;;;1738979;28;20212;-73
2023/04/06 03:17:47;;;;;;;0.20;0.20;;;;;;;;;;1744661;28;20280;-73
2023/04/06 03:18:38;;;;;;;0.20;0.20;;;;;;;;;;1738934;28;20215;-73
2023/04/06 03:19:30;;;;;;;0.20;0.20;;;;;;;;;;1742129;28;20211;-73
2023/04/06 03:20:21;;;;;;;0.20;0.20;;;;;;;;;;1740054;28;20222;-73
2023/04/06 03:21:14;;;;;;;0.20;0.20;;;;;;;;;;1739432;28;20238;-73
2023/04/06 03:22:05;;;;;;;0.30;0.30;;;;;;;;;;1740257;28;20203;-73
2023/04/06 03:22:57;;;;;;;0.35;0.35;;;;;;;;;;1743251;28;20619;-73
2023/04/06 03:23:50;;;;;;;0.10;0.10;;;;;;;;;;1738673;28;20212;-74
2023/04/06 03:24:42;;;;;;;0.22;0.22;;;;;;;;;;1743382;28;20207;-74
2023/04/06 03:25:33;;;;;;;0.20;0.20;;;;;;;;;;1741119;28;20223;-73
2023/04/06 03:26:27;;;;;;;0.20;0.20;;;;;;;;;;1741062;28;20207;-73
2023/04/06 03:27:18;;;;;;;0.35;0.35;;;;;;;;;;1743364;28;20209;-72
2023/04/06 03:28:10;;;;;;;0.30;0.30;;;;;;;;;;1742816;28;20587;-73
2023/04/06 03:29:01;;;;;;;0.20;0.20;;;;;;;;;;1740171;28;20629;-73
2023/04/06 03:29:53;;;;;;;0.10;0.10;;;;;;;;;;1740080;28;20231;-73
2023/04/06 03:30:44;;;;;;;0.13;0.13;;;;;;;;;;1741823;28;20644;-73
2023/04/06 03:31:36;;;;;;;0.30;0.30;;;;;;;;;;1740413;28;20298;-73
2023/04/06 03:32:27;;;;;;;0.20;0.20;;;;;;;;;;1744936;28;20267;-73
2023/04/06 03:33:18;;;;;;;0.40;0.40;;;;;;;;;;1740904;28;20203;-73
2023/04/06 03:34:10;;;;;;;0.35;0.35;;;;;;;;;;1742193;28;20269;-73
2023/04/06 03:35:02;;;;;;;0.30;0.30;;;;;;;;;;1742393;28;20207;-73
2023/04/06 03:35:53;;;;;;;0.45;0.45;;;;;;;;;;1740030;28;20257;-73
2023/04/06 03:36:45;;;;;;;0.20;0.20;;;;;;;;;;1740974;28;20211;-73
2023/04/06 03:37:36;;;;;;;0.20;0.20;;;;;;;;;;1746259;28;20211;-73
2023/04/06 03:38:28;;;;;;;0.30;0.30;;;;;;;;;;1740086;28;20215;-73
2023/04/06 03:39:19;;;;;;;0.10;0.10;;;;;;;;;;1743639;28;20578;-73
2023/04/06 03:40:12;;;;;;;0.10;0.10;;;;;;;;;;1738649;28;20493;-73
2023/04/06 03:41:03;;;;;;;0.55;0.55;;;;;;;;;;1740872;28;20249;-72
2023/04/06 03:41:56;;;;;;;0.10;0.10;;;;;;;;;;1739499;28;20200;-72
2023/04/06 03:42:47;;;;;;;0.20;0.20;;;;;;;;;;1745800;28;20619;-72
2023/04/06 03:43:39;;;;;;;0.10;0.10;;;;;;;;;;1739812;28;20518;-72
2023/04/06 03:44:30;;;;;;;0.20;0.20;;;;;;;;;;1744425;28;20257;-72
2023/04/06 03:45:22;;;;;;;0.10;0.10;;;;;;;;;;1744114;28;20321;-72
2023/04/06 03:46:13;;;;;;;0.10;0.10;;;;;;;;;;1740407;28;20427;-73
2023/04/06 03:47:05;;;;;;;0.20;0.20;;;;;;;;;;1741153;28;20207;-73
2023/04/06 03:47:56;;;;;;;0.10;0.10;;;;;;;;;;1744246;28;20237;-73
2023/04/06 03:48:50;;;;;;;0.10;0.10;;;;;;;;;;1739732;28;20242;-73
2023/04/06 03:49:41;;;;;;;0.10;0.10;;;;;;;;;;1743180;28;20509;-73
2023/04/06 03:50:33;;;;;;;0.20;0.20;;;;;;;;;;1740733;28;20203;-73
2023/04/06 03:51:25;;;;;;;0.20;0.20;;;;;;;;;;1740242;28;20271;-73
2023/04/06 03:52:17;;;;;;;0.30;0.30;;;;;;;;;;1742608;28;20206;-73
2023/04/06 03:53:08;;;;;;;0.17;0.17;;;;;;;;;;1742361;28;20207;-73
2023/04/06 03:54:00;;;;;;;0.20;0.20;;;;;;;;;;1740510;28;20211;-73
2023/04/06 03:54:51;;;;;;;0.20;0.20;;;;;;;;;;1742101;28;20264;-73
2023/04/06 03:55:43;;;;;;;0.20;0.20;;;;;;;;;;1740632;28;20207;-72
2023/04/06 03:56:34;;;;;;;0.30;0.30;;;;;;;;;;1740195;28;20784;-73
2023/04/06 03:57:27;;;;;;;0.20;0.20;;;;;;;;;;1743713;28;20696;-73
2023/04/06 03:58:19;;;;;;;0.45;0.45;;;;;;;;;;1741070;28;20545;-73
2023/04/06 03:59:11;;;;;;;0.20;0.20;;;;;;;;;;1741527;28;20308;-73
2023/04/06 04:00:05;;;;;;;0.17;0.17;;;;;;;;;;1738976;28;20333;-73
2023/04/06 04:00:57;;;;;;;0.10;0.10;;;;;;;;;;1736557;28;20704;-73
2023/04/06 04:01:48;;;;;;;0.10;0.10;;;;;;;;;;1739682;28;20264;-73
2023/04/06 04:02:40;;;;;;;0.20;0.20;;;;;;;;;;1745835;28;20213;-73
2023/04/06 04:03:31;;;;;;;0.08;0.08;;;;;;;;;;1740204;28;20272;-72
2023/04/06 04:04:23;;;;;;;0.22;0.22;;;;;;;;;;1742627;28;20253;-73
2023/04/06 04:05:15;;;;;;;0.20;0.20;;;;;;;;;;1740067;28;20261;-73
2023/04/06 04:06:07;;;;;;;0.30;0.30;;;;;;;;;;1740221;28;20203;-73
2023/04/06 04:06:58;;;;;;;0.10;0.10;;;;;;;;;;1740025;28;20274;-73
2023/04/06 04:07:50;;;;;;;0.10;0.10;;;;;;;;;;1745186;28;20568;-73
2023/04/06 04:08:41;;;;;;;0.10;0.10;;;;;;;;;;1743090;28;20215;-73
2023/04/06 04:09:33;;;;;;;0.20;0.20;;;;;;;;;;1743072;28;20240;-73
2023/04/06 04:10:24;;;;;;;0.17;0.17;;;;;;;;;;1740487;28;20261;-73
2023/04/06 04:11:16;;;;;;;0.35;0.35;;;;;;;;;;1739927;28;20632;-73
2023/04/06 04:12:07;;;;;;;0.10;0.10;;;;;;;;;;1740722;28;20644;-73
2023/04/06 04:13:00;;;;;;;0.22;0.22;;;;;;;;;;1743111;28;20217;-72
2023/04/06 04:13:51;;;;;;;0.10;0.10;;;;;;;;;;1737295;28;20549;-73
2023/04/06 04:14:43;;;;;;;0.17;0.17;;;;;;;;;;1735661;28;20630;-73
2023/04/06 04:15:34;;;;;;;0.20;0.20;;;;;;;;;;1739085;28;20607;-73
2023/04/06 04:16:26;;;;;;;0.13;0.13;;;;;;;;;;1738473;28;20257;-73
2023/04/06 04:17:17;;;;;;;0.20;0.20;;;;;;;;;;1736783;28;20208;-73
2023/04/06 04:18:09;;;;;;;0.10;0.10;;;;;;;;;;1734537;28;20687;-73
2023/04/06 04:19:00;;;;;;;0.38;0.38;;;;;;;;;;1737516;28;20203;-73
2023/04/06 04:19:52;;;;;;;0.20;0.20;;;;;;;;;;1736948;28;20203;-73
2023/04/06 04:20:43;;;;;;;0.20;0.20;;;;;;;;;;1738703;28;20272;-73
2023/04/06 04:21:35;;;;;;;0.20;0.20;;;;;;;;;;1738016;28;20211;-73
2023/04/06 04:22:27;;;;;;;0.10;0.10;;;;;;;;;;1734975;28;20261;-73
2023/04/06 04:23:19;;;;;;;0.10;0.10;;;;;;;;;;1733682;28;20211;-73
2023/04/06 04:24:10;;;;;;;0.30;0.30;;;;;;;;;;1737124;28;20280;-73
2023/04/06 04:25:03;;;;;;;0.20;0.20;;;;;;;;;;1736920;28;20273;-73
2023/04/06 04:25:54;;;;;;;0.20;0.20;;;;;;;;;;1735582;28;20205;-73
2023/04/06 04:26:46;;;;;;;0.20;0.20;;;;;;;;;;1738561;28;20718;-73
2023/04/06 04:27:37;;;;;;;0.30;0.30;;;;;;;;;;1733384;28;20274;-73
2023/04/06 04:28:30;;;;;;;0.40;0.40;;;;;;;;;;1735016;28;20270;-73
2023/04/06 04:29:22;;;;;;;0.15;0.15;;;;;;;;;;1735906;28;20542;-73
2023/04/06 04:30:14;;;;;;;0.30;0.30;;;;;;;;;;1737981;28;20215;-73
2023/04/06 04:31:05;;;;;;;0.20;0.20;;;;;;;;;;1738137;28;20211;-73
2023/04/06 04:31:57;;;;;;;0.20;0.20;;;;;;;;;;1738952;28;20238;-73
2023/04/06 04:32:48;;;;;;;0.10;0.10;;;;;;;;;;1733411;28;20601;-73
2023/04/06 04:33:40;;;;;;;0.22;0.22;;;;;;;;;;1735729;28;20196;-73
2023/04/06 04:34:32;;;;;;;0.10;0.10;;;;;;;;;;1735662;28;20297;-73
2023/04/06 04:35:24;;;;;;;0.20;0.20;;;;;;;;;;1738613;28;20242;-73
2023/04/06 04:36:15;;;;;;;0.20;0.20;;;;;;;;;;1737694;28;20243;-73
2023/04/06 04:37:07;;;;;;;0.40;0.40;;;;;;;;;;1737542;28;20211;-73
2023/04/06 04:37:58;;;;;;;0.20;0.20;;;;;;;;;;1734221;28;20272;-73
2023/04/06 04:38:50;;;;;;;0.10;0.10;;;;;;;;;;1736663;28;20261;-73
2023/04/06 04:39:41;;;;;;;0.10;0.10;;;;;;;;;;1734588;28;20237;-73
2023/04/06 04:40:33;;;;;;;0.13;0.13;;;;;;;;;;1737094;28;20281;-73
2023/04/06 04:41:24;;;;;;;0.30;0.30;;;;;;;;;;1738142;28;20215;-73
2023/04/06 04:42:16;;;;;;;0.22;0.22;;;;;;;;;;1736667;28;20289;-73
2023/04/06 04:43:07;;;;;;;0.10;0.10;;;;;;;;;;1734026;28;20211;-73
2023/04/06 04:44:01;;;;;;;0.32;0.32;;;;;;;;;;1737254;28;20625;-73
2023/04/06 04:44:52;;;;;;;0.32;0.32;;;;;;;;;;1736693;28;20216;-72
2023/04/06 04:45:44;;;;;;;0.20;0.20;;;;;;;;;;1738766;28;20199;-72
2023/04/06 04:46:35;;;;;;;0.28;0.28;;;;;;;;;;1738481;28;20270;-72
2023/04/06 04:47:27;;;;;;;0.40;0.40;;;;;;;;;;1734994;28;20204;-72
2023/04/06 04:48:18;;;;;;;0.10;0.10;;;;;;;;;;1734318;28;20224;-72
2023/04/06 04:49:10;;;;;;;0.22;0.22;;;;;;;;;;1735736;28;20581;-72
2023/04/06 04:50:04;;;;;;;0.10;0.10;;;;;;;;;;1736709;28;20550;-72
2023/04/06 04:50:56;;;;;;;0.20;0.20;;;;;;;;;;1739493;28;20200;-71
2023/04/06 04:51:47;;;;;;;0.20;0.20;;;;;;;;;;1737527;28;20696;-71
2023/04/06 04:52:40;;;;;;;0.17;0.17;;;;;;;;;;1733677;28;20652;-71
2023/04/06 04:53:31;;;;;;;0.30;0.30;;;;;;;;;;1735172;28;20208;-71
2023/04/06 04:54:23;;;;;;;0.10;0.10;;;;;;;;;;1735829;28;20684;-72
2023/04/06 04:55:14;;;;;;;0.20;0.20;;;;;;;;;;1738568;28;20223;-72
2023/04/06 04:56:06;;;;;;;0.10;0.10;;;;;;;;;;1738129;28;20212;-72
2023/04/06 04:56:57;;;;;;;0.10;0.10;;;;;;;;;;1739082;28;20216;-72
2023/04/06 04:57:49;;;;;;;0.15;0.15;;;;;;;;;;1732194;28;20457;-71
2023/04/06 04:58:40;;;;;;;0.10;0.10;;;;;;;;;;1735039;28;20295;-71
2023/04/06 04:59:33;;;;;;;0.10;0.10;;;;;;;;;;1735769;28;20622;-71
2023/04/06 05:00:25;;;;;;;0.20;0.20;;;;;;;;;;1738900;28;20306;-72
2023/04/06 05:01:17;;;;;;;0.30;0.30;;;;;;;;;;1738330;28;20527;-72
2023/04/06 05:02:08;;;;;;;0.50;0.50;;;;;;;;;;1737130;28;20596;-72
2023/04/06 05:03:00;;;;;;;0.10;0.10;;;;;;;;;;1734256;28;20204;-72
2023/04/06 05:03:51;;;;;;;0.20;0.20;;;;;;;;;;1736095;28;20722;-72
2023/04/06 05:04:43;;;;;;;0.13;0.13;;;;;;;;;;1735564;28;20735;-72
2023/04/06 05:05:34;;;;;;;0.10;0.10;;;;;;;;;;1738908;28;20207;-72
2023/04/06 05:06:26;;;;;;;0.20;0.20;;;;;;;;;;1738115;28;20710;-72
2023/04/06 05:07:18;;;;;;;0.20;0.20;;;;;;;;;;1736435;28;20212;-72
2023/04/06 05:08:10;;;;;;;0.17;0.17;;;;;;;;;;1734090;28;20266;-72
2023/04/06 05:09:01;;;;;;;0.10;0.10;;;;;;;;;;1737159;28;20268;-72
2023/04/06 05:09:53;;;;;;;0.65;0.65;;;;;;;;;;1736607;28;20257;-72